Time;durP1;ratioP1;P1;durP2;ratioP2;P2;SDS_P1;SDS_P2;PMS_P1;PMS_P2;Temp;Humidity;BMP_temperature;BMP_pressure;BME280_temperature;BME280_humidity;BME280_pressure;Samples;Min_cycle;Max_cycle;Signal;HPM_P1;HPM_P2
2022/12/06 00:01:34;;;;;;;38.75;15.65;;;;;;;2.93;88.37;99592.34;1588168;90;21939;-77
2022/12/06 00:04:07;;;;;;;40.28;16.45;;;;;;;2.90;88.21;99587.58;1588166;89;21067;-77
2022/12/06 00:06:46;;;;;;;37.08;14.53;;;;;;;2.84;88.46;99590.92;1588072;90;21042;-78
2022/12/06 00:09:27;;;;;;;40.33;15.70;;;;;;;2.77;88.90;99592.98;1588047;90;21043;-77
2022/12/06 00:11:56;;;;;;;38.85;15.93;;;;;;;2.70;89.48;99592.44;1588119;90;21057;-77
2022/12/06 00:14:25;;;;;;;36.90;15.95;;;;;;;2.64;91.36;99592.34;1588371;90;21187;-77
2022/12/06 00:16:52;;;;;;;40.35;17.35;;;;;;;2.60;90.53;99605.55;1588004;90;21066;-77
2022/12/06 00:19:22;;;;;;;45.00;18.65;;;;;;;2.53;90.53;99602.47;1587950;90;21077;-78
2022/12/06 00:21:50;;;;;;;43.50;17.50;;;;;;;2.48;90.43;99598.52;1589291;90;21581;-77
2022/12/06 00:24:20;;;;;;;44.13;17.92;;;;;;;2.42;90.47;99594.58;1589239;90;21526;-77
2022/12/06 00:26:50;;;;;;;51.28;19.50;;;;;;;2.40;89.93;99592.41;1589338;90;21010;-78
2022/12/06 00:29:21;;;;;;;52.03;16.87;;;;;;;2.42;90.87;99588.17;1588938;90;21035;-77
2022/12/06 00:31:49;;;;;;;48.52;17.95;;;;;;;2.46;90.87;99582.23;1589179;90;21043;-77
2022/12/06 00:34:17;;;;;;;52.45;19.10;;;;;;;2.50;90.67;99580.16;1589416;90;21026;-77
2022/12/06 00:36:45;;;;;;;45.90;17.37;;;;;;;2.55;90.54;99578.54;1589240;90;21021;-77
2022/12/06 00:39:16;;;;;;;37.75;14.80;;;;;;;2.59;90.09;99572.61;1589224;90;21046;-77
2022/12/06 00:41:44;;;;;;;35.13;14.15;;;;;;;2.54;89.16;99571.66;1589302;90;21042;-77
2022/12/06 00:44:12;;;;;;;31.62;13.70;;;;;;;2.52;88.65;99574.63;1589058;90;21110;-77
2022/12/06 00:46:39;;;;;;;33.45;14.35;;;;;;;2.52;88.43;99568.64;1588280;90;21022;-77
2022/12/06 00:49:08;;;;;;;33.67;15.03;;;;;;;2.48;88.29;99562.59;1588503;90;21066;-77
2022/12/06 00:51:37;;;;;;;30.37;14.18;;;;;;;2.46;88.53;99566.84;1589144;90;21026;-78
2022/12/06 00:54:07;;;;;;;30.08;13.30;;;;;;;2.43;88.71;99568.09;1589097;90;21053;-78
2022/12/06 00:56:36;;;;;;;42.78;16.27;;;;;;;2.46;89.01;99551.44;1589745;90;21019;-78
2022/12/06 00:59:05;;;;;;;44.53;16.77;;;;;;;2.45;88.98;99555.27;1588395;90;21055;-78
2022/12/06 01:01:34;;;;;;;45.80;19.12;;;;;;;2.47;88.93;99553.61;1587963;90;21611;-77
2022/12/06 01:04:05;;;;;;;44.35;18.85;;;;;;;2.44;89.43;99554.41;1588086;89;21035;-78
2022/12/06 01:06:36;;;;;;;47.73;17.92;;;;;;;2.47;89.47;99568.58;1588041;90;21031;-78
2022/12/06 01:09:07;;;;;;;41.63;16.17;;;;;;;2.43;89.09;99567.20;1588028;90;21562;-78
2022/12/06 01:11:35;;;;;;;37.03;15.28;;;;;;;2.37;88.90;99568.86;1588141;89;21059;-78
2022/12/06 01:14:03;;;;;;;41.30;14.50;;;;;;;2.22;89.14;99570.32;1588015;90;21034;-78
2022/12/06 01:16:30;;;;;;;45.30;15.78;;;;;;;2.17;89.26;99556.14;1587973;90;21075;-78
2022/12/06 01:19:01;;;;;;;43.50;15.58;;;;;;;2.11;88.96;99555.62;1587909;90;21071;-78
2022/12/06 01:21:29;;;;;;;34.98;14.35;;;;;;;2.08;90.19;99555.55;1587847;89;21019;-78
2022/12/06 01:23:57;;;;;;;36.63;15.30;;;;;;;2.06;89.56;99554.67;1587727;90;21067;-78
2022/12/06 01:26:30;;;;;;;33.48;14.85;;;;;;;2.10;89.55;99556.88;1587981;89;21047;-78
2022/12/06 01:28:58;;;;;;;35.92;14.25;;;;;;;2.10;89.93;99554.30;1587788;89;21038;-78
2022/12/06 01:31:28;;;;;;;38.53;15.55;;;;;;;2.11;90.13;99559.86;1587869;90;21055;-77
2022/12/06 01:33:55;;;;;;;44.63;15.32;;;;;;;2.15;91.43;99562.95;1587629;90;21558;-77
2022/12/06 01:36:24;;;;;;;34.60;14.40;;;;;;;2.19;91.03;99570.72;1587856;90;21809;-78
2022/12/06 01:38:55;;;;;;;37.95;16.00;;;;;;;2.21;90.85;99572.03;1587762;89;21027;-78
2022/12/06 01:41:25;;;;;;;34.63;15.98;;;;;;;2.21;90.89;99573.31;1587896;89;20999;-78
2022/12/06 01:43:54;;;;;;;36.10;15.95;;;;;;;2.17;91.36;99574.95;1587775;89;21070;-77
2022/12/06 01:46:41;;;;;;;38.42;15.55;;;;;;;2.14;91.02;99568.48;1587780;89;21130;-79
2022/12/06 01:49:14;;;;;;;43.38;16.37;;;;;;;2.07;91.34;99561.54;1587099;90;21527;-78
2022/12/06 01:51:50;;;;;;;43.80;17.10;;;;;;;2.08;91.52;99560.69;1584192;90;21047;-78
2022/12/06 01:54:20;;;;;;;42.60;17.90;;;;;;;2.08;91.50;99557.27;1587884;90;21014;-78
2022/12/06 01:56:50;;;;;;;45.23;17.20;;;;;;;2.14;92.19;99558.22;1587984;90;21685;-77
2022/12/06 01:59:19;;;;;;;45.75;16.45;;;;;;;2.17;92.69;99551.87;1587974;90;21042;-78
2022/12/06 02:01:47;;;;;;;44.73;17.67;;;;;;;2.20;92.59;99547.20;1587210;90;21058;-77
2022/12/06 02:04:17;;;;;;;53.40;16.90;;;;;;;2.24;93.23;99544.27;1587424;90;21070;-78
2022/12/06 02:06:46;;;;;;;47.40;17.25;;;;;;;2.33;93.53;99543.14;1586801;89;21090;-77
2022/12/06 02:09:15;;;;;;;38.88;15.90;;;;;;;2.39;92.85;99541.95;1586999;90;21071;-78
2022/12/06 02:11:43;;;;;;;35.73;16.32;;;;;;;2.42;93.45;99539.41;1586629;90;21118;-77
2022/12/06 02:14:16;;;;;;;43.48;17.00;;;;;;;2.53;93.12;99543.44;1586760;89;22295;-78
2022/12/06 02:17:24;;;;;;;39.10;16.48;;;;;;;2.54;92.64;99540.86;1586764;89;21059;-77
2022/12/06 02:20:21;;;;;;;45.95;16.50;;;;;;;2.57;92.73;99541.34;1586829;90;21126;-77
2022/12/06 02:23:18;;;;;;;51.45;17.35;;;;;;;2.64;92.52;99539.30;1585574;90;21554;-77
2022/12/06 02:26:20;;;;;;;55.98;17.35;;;;;;;2.69;93.24;99536.81;1586170;90;22109;-78
2022/12/06 02:29:13;;;;;;;45.12;17.05;;;;;;;2.76;93.23;99546.30;1586772;89;21109;-78
2022/12/06 02:32:00;;;;;;;46.37;17.52;;;;;;;2.86;93.90;99550.72;1573243;90;21090;-77
2022/12/06 02:34:58;;;;;;;43.75;16.42;;;;;;;2.95;93.49;99543.57;1581969;90;20995;-77
2022/12/06 02:37:33;;;;;;;51.35;18.85;;;;;;;2.92;92.97;99537.95;1586816;89;21090;-77
2022/12/06 02:40:15;;;;;;;50.12;18.40;;;;;;;2.93;92.91;99524.71;1585799;90;21071;-77
2022/12/06 02:43:00;;;;;;;59.42;21.70;;;;;;;2.94;92.95;99522.56;1587682;90;21059;-77
2022/12/06 02:45:32;;;;;;;66.57;25.12;;;;;;;3.04;93.80;99517.98;1584699;90;21138;-77
2022/12/06 02:48:03;;;;;;;59.55;23.62;;;;;;;3.03;92.28;99516.70;1587750;90;21662;-77
2022/12/06 02:50:36;;;;;;;53.85;18.40;;;;;;;2.97;92.73;99521.34;1588125;90;21026;-77
2022/12/06 02:53:08;;;;;;;47.55;18.55;;;;;;;2.99;93.08;99527.36;1588023;90;21018;-78
2022/12/06 02:55:36;;;;;;;45.40;17.52;;;;;;;3.01;93.35;99524.81;1587113;90;21094;-77
2022/12/06 02:58:03;;;;;;;50.65;17.87;;;;;;;2.99;92.85;99523.07;1587015;90;21061;-77
2022/12/06 03:00:42;;;;;;;50.35;17.85;;;;;;;3.01;92.53;99518.39;1587035;89;21027;-77
2022/12/06 03:03:54;;;;;;;46.65;18.30;;;;;;;2.99;92.83;99522.22;1570502;90;21105;-78
2022/12/06 03:06:57;;;;;;;43.60;16.12;;;;;;;3.02;92.58;99518.81;1580857;90;21125;-77
2022/12/06 03:09:46;;;;;;;50.17;18.30;;;;;;;2.98;92.25;99511.09;1570594;90;21078;-77
2022/12/06 03:12:52;;;;;;;39.18;14.78;;;;;;;2.92;92.18;99515.27;1587302;90;21322;-77
2022/12/06 03:15:44;;;;;;;48.92;17.55;;;;;;;2.92;92.28;99507.56;1570616;91;21097;-77
2022/12/06 03:18:22;;;;;;;43.48;18.10;;;;;;;2.92;92.32;99507.56;1570498;90;21082;-78
2022/12/06 03:20:58;;;;;;;42.10;16.70;;;;;;;2.87;93.26;99493.39;1586104;90;21121;-78
2022/12/06 03:23:30;;;;;;;39.05;15.80;;;;;;;2.92;92.90;99494.72;1570714;90;21097;-77
2022/12/06 03:26:00;;;;;;;43.65;17.27;;;;;;;2.83;92.07;99495.48;1586713;90;21106;-77
2022/12/06 03:28:29;;;;;;;43.75;17.12;;;;;;;2.80;92.66;99491.58;1586824;90;21593;-77
2022/12/06 03:31:05;;;;;;;41.18;16.02;;;;;;;2.75;93.16;99485.11;1586497;90;21050;-77
2022/12/06 03:33:34;;;;;;;40.58;17.15;;;;;;;2.77;92.85;99480.00;1567271;90;21093;-77
2022/12/06 03:36:02;;;;;;;39.63;16.65;;;;;;;2.76;93.23;99475.27;1569948;90;21086;-77
2022/12/06 03:38:44;;;;;;;35.15;16.10;;;;;;;2.81;93.54;99471.92;1586505;90;21589;-77
2022/12/06 03:41:15;;;;;;;52.85;19.40;;;;;;;2.87;93.53;99466.42;1570087;90;21630;-78
2022/12/06 03:43:43;;;;;;;50.35;18.55;;;;;;;2.95;93.86;99463.52;1586376;90;21052;-77
2022/12/06 03:46:24;;;;;;;52.23;20.12;;;;;;;3.02;93.93;99458.45;1569779;91;21169;-77
2022/12/06 03:49:06;;;;;;;46.80;17.87;;;;;;;3.11;93.92;99468.84;1569605;90;21074;-77
2022/12/06 03:51:36;;;;;;;52.20;19.95;;;;;;;3.11;92.98;99457.28;1586340;90;21054;-77
2022/12/06 03:54:07;;;;;;;49.53;16.50;;;;;;;3.11;93.09;99455.56;1569949;90;21057;-78
2022/12/06 03:56:36;;;;;;;50.00;17.73;;;;;;;3.12;92.85;99460.27;1586204;90;21118;-78
2022/12/06 03:59:06;;;;;;;42.55;16.50;;;;;;;3.07;92.69;99458.95;1587844;90;21483;-78
2022/12/06 04:01:34;;;;;;;40.78;17.15;;;;;;;3.05;92.14;99467.49;1571159;90;21066;-78
2022/12/06 04:04:02;;;;;;;46.80;18.65;;;;;;;3.02;92.29;99462.30;1571294;91;21010;-78
2022/12/06 04:06:30;;;;;;;44.35;16.40;;;;;;;3.05;92.74;99461.06;1587760;90;21587;-78
2022/12/06 04:09:51;;;;;;;45.55;17.02;;;;;;;3.09;92.51;99462.39;1571244;91;21078;-78
2022/12/06 04:11:26;;;;;;;49.30;18.50;;;;;;;3.08;92.40;99458.52;1569608;91;21060;-78
2022/12/06 04:13:54;;;;;;;54.60;18.37;;;;;;;3.10;92.55;99460.67;1587780;90;21006;-78
2022/12/06 04:19:07;;;;;;;45.90;16.62;;;;;;;3.14;92.60;99452.16;1587838;90;21051;-78
2022/12/06 04:24:20;;;;;;;50.30;17.73;;;;;;;3.01;91.73;99443.91;1569818;91;20979;-78
2022/12/06 04:26:47;;;;;;;48.70;18.25;;;;;;;2.96;91.87;99446.00;1571387;91;21031;-78
2022/12/06 04:40:18;;;;;;;52.30;18.45;;;;;;;2.74;92.44;99437.16;1588561;90;21046;-78
2022/12/06 04:45:31;;;;;;;59.73;20.10;;;;;;;2.72;92.92;99432.86;1571137;90;21567;-77
2022/12/06 04:47:59;;;;;;;52.35;19.60;;;;;;;2.74;92.94;99432.45;1571232;90;21534;-78
2022/12/06 04:50:26;;;;;;;50.83;19.15;;;;;;;2.75;92.63;99420.92;1571371;90;21014;-78
2022/12/06 04:52:54;;;;;;;56.75;20.17;;;;;;;2.78;92.47;99429.92;1587606;90;21030;-78
2022/12/06 04:55:22;;;;;;;52.25;20.80;;;;;;;2.80;92.69;99422.25;1571288;90;21010;-77
2022/12/06 04:57:49;;;;;;;60.95;19.82;;;;;;;2.84;93.09;99421.44;1571262;91;20998;-78
2022/12/06 05:00:18;;;;;;;56.75;19.23;;;;;;;2.88;92.90;99419.34;1571100;91;21082;-78
2022/12/06 05:02:45;;;;;;;63.48;18.48;;;;;;;2.91;93.18;99415.53;1598566;89;21018;-78
2022/12/06 05:05:13;;;;;;;55.50;19.90;;;;;;;3.00;93.35;99414.77;1598484;89;21072;-78
2022/12/06 05:07:40;;;;;;;54.40;18.20;;;;;;;3.06;92.97;99412.25;1598207;89;21074;-77
2022/12/06 05:10:08;;;;;;;42.88;18.77;;;;;;;3.09;92.77;99407.59;1598564;89;21058;-78
2022/12/06 05:12:35;;;;;;;48.85;19.45;;;;;;;3.11;93.05;99408.03;1598151;89;21065;-78
2022/12/06 05:15:03;;;;;;;56.05;18.65;;;;;;;3.13;92.77;99401.20;1597735;90;21098;-79
2022/12/06 05:17:31;;;;;;;48.90;18.07;;;;;;;3.17;92.81;99395.68;1597697;89;21930;-78
2022/12/06 05:19:58;;;;;;;51.15;17.15;;;;;;;3.24;93.06;99396.16;1597704;89;21648;-78
2022/12/06 05:22:26;;;;;;;42.75;17.98;;;;;;;3.30;92.83;99401.38;1597692;90;21065;-78
2022/12/06 05:24:53;;;;;;;59.67;20.52;;;;;;;3.33;92.66;99394.96;1597287;90;21966;-78
2022/12/06 05:27:21;;;;;;;62.70;22.50;;;;;;;3.36;92.61;99395.01;1597262;89;21122;-77
2022/12/06 05:29:48;;;;;;;63.98;22.50;;;;;;;3.36;92.32;99388.98;1597228;90;21042;-78
2022/12/06 05:32:15;;;;;;;54.42;21.20;;;;;;;3.42;92.51;99389.47;1597154;89;21054;-77
2022/12/06 05:34:43;;;;;;;55.75;22.37;;;;;;;3.46;92.63;99379.64;1597359;90;21054;-78
2022/12/06 05:37:11;;;;;;;67.50;23.90;;;;;;;3.51;92.60;99383.98;1585649;90;21938;-78
2022/12/06 05:39:39;;;;;;;67.87;23.27;;;;;;;3.55;92.57;99375.87;1597276;89;21148;-78
2022/12/06 05:42:06;;;;;;;74.58;24.30;;;;;;;3.57;92.22;99372.45;1597386;89;21034;-78
2022/12/06 05:44:34;;;;;;;67.87;22.90;;;;;;;3.53;91.79;99369.42;1586207;90;21081;-78
2022/12/06 05:47:02;;;;;;;65.87;26.42;;;;;;;3.53;91.88;99373.71;1597419;90;21057;-78
2022/12/06 05:49:29;;;;;;;72.58;25.60;;;;;;;3.56;92.23;99378.46;1597656;89;21113;-77
2022/12/06 05:51:56;;;;;;;83.80;29.52;;;;;;;3.61;92.41;99384.91;1597357;89;21105;-78
2022/12/06 05:54:24;;;;;;;65.37;25.65;;;;;;;3.63;92.25;99384.50;1597678;90;21006;-77
2022/12/06 05:56:52;;;;;;;89.22;29.10;;;;;;;3.62;91.91;99386.65;1597516;90;21069;-79
2022/12/06 05:59:19;;;;;;;87.85;32.03;;;;;;;3.60;91.90;99383.17;1597661;90;21061;-78
2022/12/06 06:01:47;;;;;;;83.78;32.38;;;;;;;3.63;91.90;99383.21;1590484;90;22093;-77
2022/12/06 06:04:14;;;;;;;75.05;30.55;;;;;;;3.66;92.08;99390.08;1587983;90;21031;-78
2022/12/06 06:06:42;;;;;;;76.45;28.02;;;;;;;3.71;92.03;99389.70;1588264;90;21066;-78
2022/12/06 06:09:09;;;;;;;65.75;24.65;;;;;;;3.69;91.84;99385.83;1588055;90;21078;-78
2022/12/06 06:11:37;;;;;;;63.85;24.20;;;;;;;3.70;91.63;99387.56;1588150;90;21023;-78
2022/12/06 06:14:04;;;;;;;70.22;22.67;;;;;;;3.68;91.63;99384.13;1588133;90;21666;-78
2022/12/06 06:16:33;;;;;;;63.60;23.00;;;;;;;3.71;91.73;99377.70;1588009;90;21834;-78
2022/12/06 06:19:00;;;;;;;60.60;21.75;;;;;;;3.73;91.75;99378.56;1587776;90;21047;-77
2022/12/06 06:21:28;;;;;;;59.65;21.55;;;;;;;3.72;91.54;99376.86;1588452;90;21546;-78
2022/12/06 06:23:56;;;;;;;54.38;19.02;;;;;;;3.69;91.58;99387.11;1588128;90;21089;-78
2022/12/06 06:26:24;;;;;;;67.87;22.20;;;;;;;3.73;91.89;99382.86;1588547;90;21654;-78
2022/12/06 06:28:52;;;;;;;81.50;27.73;;;;;;;3.72;91.46;99379.44;1588561;90;21566;-79
2022/12/06 06:31:19;;;;;;;72.75;25.97;;;;;;;3.68;91.63;99385.81;1588815;90;21027;-78
2022/12/06 06:33:47;;;;;;;70.83;24.32;;;;;;;3.67;91.50;99390.09;1588310;89;21061;-78
2022/12/06 06:36:14;;;;;;;80.10;26.12;;;;;;;3.69;91.72;99391.41;1588255;90;21043;-78
2022/12/06 06:38:42;;;;;;;69.95;23.98;;;;;;;3.73;91.90;99387.57;1588313;90;21070;-78
2022/12/06 06:41:11;;;;;;;85.05;27.07;;;;;;;3.72;91.66;99388.44;1588282;90;21050;-78
2022/12/06 06:43:39;;;;;;;86.72;29.57;;;;;;;3.79;92.19;99382.90;1588426;90;21066;-78
2022/12/06 06:46:07;;;;;;;69.12;26.82;;;;;;;3.85;92.30;99363.64;1593097;89;21142;-78
2022/12/06 06:48:38;;;;;;;86.50;31.65;;;;;;;3.88;91.92;99353.80;1590879;89;21678;-78
2022/12/06 06:51:10;;;;;;;80.53;29.20;;;;;;;3.91;91.97;99362.83;1595173;89;21244;-76
2022/12/06 06:53:38;;;;;;;63.68;25.35;;;;;;;3.97;92.00;99378.30;1595278;89;21030;-78
2022/12/06 06:56:06;;;;;;;73.97;26.15;;;;;;;3.97;91.92;99371.87;1594598;89;21071;-78
2022/12/06 06:58:34;;;;;;;76.47;27.42;;;;;;;3.99;91.75;99364.58;1588493;89;21637;-78
2022/12/06 07:01:04;;;;;;;60.12;25.88;;;;;;;4.06;92.07;99372.33;1588559;88;20989;-78
2022/12/06 07:03:33;;;;;;;59.93;24.15;;;;;;;4.11;91.81;99364.23;1586059;90;21031;-78
2022/12/06 07:06:09;;;;;;;63.55;24.25;;;;;;;4.09;91.87;99364.64;1582738;89;21039;-79
2022/12/06 07:08:40;;;;;;;67.92;24.43;;;;;;;4.11;91.96;99365.08;1587298;89;21051;-77
2022/12/06 07:11:09;;;;;;;69.32;26.27;;;;;;;4.17;92.36;99358.67;1587098;89;22107;-78
2022/12/06 07:13:39;;;;;;;176.63;62.17;;;;;;;4.25;92.47;99358.72;1586987;89;20997;-78
2022/12/06 07:16:11;;;;;;;99.05;39.25;;;;;;;4.33;92.47;99358.75;1587988;89;21666;-78
2022/12/06 07:18:39;;;;;;;74.62;29.63;;;;;;;4.43;92.44;99356.64;1585119;89;21868;-79
2022/12/06 07:21:10;;;;;;;60.48;22.87;;;;;;;4.53;92.50;99356.25;1586738;89;21511;-78
2022/12/06 07:23:37;;;;;;;51.08;23.18;;;;;;;4.59;92.10;99351.13;1577967;90;21072;-78
2022/12/06 07:26:12;;;;;;;50.05;21.27;;;;;;;4.62;91.76;99355.45;1578781;89;21035;-78
2022/12/06 07:28:42;;;;;;;53.13;21.35;;;;;;;4.64;91.57;99359.73;1585401;89;21039;-78
2022/12/06 07:31:14;;;;;;;55.78;22.22;;;;;;;4.65;91.36;99355.44;1585703;90;21096;-77
2022/12/06 07:33:43;;;;;;;57.00;21.68;;;;;;;4.67;91.45;99353.72;1586953;89;21467;-78
2022/12/06 07:36:12;;;;;;;49.67;19.65;;;;;;;4.74;91.63;99351.17;1588089;89;21040;-78
2022/12/06 07:38:41;;;;;;;40.75;17.85;;;;;;;4.84;91.70;99354.63;1586331;89;21080;-78
2022/12/06 07:46:46;;;;;;;43.15;16.55;;;;;;;4.93;90.78;99343.07;1583684;89;21006;-78
2022/12/06 07:49:16;;;;;;;40.92;16.57;;;;;;;4.94;90.85;99347.79;1586920;89;21045;-78
2022/12/06 07:51:44;;;;;;;41.70;18.45;;;;;;;4.93;90.72;99339.61;1586243;89;21047;-77
2022/12/06 07:54:14;;;;;;;47.75;20.48;;;;;;;5.01;90.88;99339.63;1586793;89;21033;-78
2022/12/06 07:56:42;;;;;;;39.60;16.55;;;;;;;5.08;91.10;99333.20;1586055;89;21019;-78
2022/12/06 07:59:11;;;;;;;43.68;18.35;;;;;;;5.15;91.00;99328.90;1586179;89;21023;-78
2022/12/06 08:01:39;;;;;;;41.00;19.02;;;;;;;5.17;90.76;99322.91;1592948;88;21035;-79
2022/12/06 08:04:06;;;;;;;37.35;16.77;;;;;;;5.27;91.02;99322.48;1595621;89;21062;-78
2022/12/06 08:06:36;;;;;;;30.48;14.43;;;;;;;5.37;90.77;99325.48;1593711;88;21045;-78
2022/12/06 08:09:05;;;;;;;32.23;15.35;;;;;;;5.33;89.99;99322.48;1582769;89;21053;-78
2022/12/06 08:11:33;;;;;;;33.83;15.13;;;;;;;5.32;90.04;99326.34;1593997;88;21093;-79
2022/12/06 08:14:02;;;;;;;26.60;13.60;;;;;;;5.32;90.02;99321.18;1594107;88;21017;-78
2022/12/06 08:16:30;;;;;;;27.98;12.30;;;;;;;5.31;89.86;99320.33;1593098;88;21701;-78
2022/12/06 08:18:58;;;;;;;28.65;13.40;;;;;;;5.23;89.97;99319.44;1584824;90;21883;-78
2022/12/06 08:21:25;;;;;;;32.80;13.90;;;;;;;5.17;90.00;99322.91;1594859;88;21018;-78
2022/12/06 08:23:54;;;;;;;31.30;14.20;;;;;;;5.17;90.14;99316.87;1594265;90;21063;-79
2022/12/06 08:26:22;;;;;;;39.55;16.05;;;;;;;5.23;90.45;99317.30;1593515;90;21125;-78
2022/12/06 08:28:50;;;;;;;33.70;16.07;;;;;;;5.29;90.49;99308.28;1592240;88;21076;-78
2022/12/06 08:31:22;;;;;;;31.85;14.00;;;;;;;5.31;90.45;99310.02;1592244;88;21050;-77
2022/12/06 08:33:50;;;;;;;31.25;14.65;;;;;;;5.41;90.49;99319.87;1591621;88;21071;-78
2022/12/06 08:36:20;;;;;;;34.88;14.38;;;;;;;5.48;90.44;99314.30;1597441;88;21052;-79
2022/12/06 08:38:50;;;;;;;30.70;14.55;;;;;;;5.54;90.46;99319.44;1604655;89;21128;-76
2022/12/06 08:44:04;;;;;;;32.95;14.75;;;;;;;5.66;90.26;99315.55;1591845;88;21567;-78
2022/12/06 08:46:33;;;;;;;27.13;13.20;;;;;;;5.72;89.78;99309.09;1592259;88;21049;-78
2022/12/06 08:49:01;;;;;;;27.60;13.45;;;;;;;5.80;89.65;99312.95;1593854;89;21017;-78
2022/12/06 08:51:30;;;;;;;34.25;13.10;;;;;;;5.90;89.54;99304.75;1593877;90;20987;-78
2022/12/06 08:53:58;;;;;;;26.60;13.90;;;;;;;5.97;89.39;99306.50;1589259;90;21200;-78
2022/12/06 08:56:27;;;;;;;25.20;12.35;;;;;;;6.02;89.26;99300.87;1565375;91;21462;-78
2022/12/06 08:58:55;;;;;;;29.10;14.53;;;;;;;6.06;88.86;99309.03;1590723;89;21140;-78
2022/12/06 09:01:32;;;;;;;37.15;15.50;;;;;;;6.14;89.02;99302.11;1581636;88;21003;-77
2022/12/06 09:04:01;;;;;;;27.30;14.18;;;;;;;6.21;88.58;99303.38;1557915;91;21019;-77
2022/12/06 09:06:29;;;;;;;29.35;13.80;;;;;;;6.20;88.36;99299.09;1559317;90;22023;-79
2022/12/06 09:08:57;;;;;;;28.98;14.05;;;;;;;6.13;88.12;99296.98;1558882;90;21057;-78
2022/12/06 09:11:25;;;;;;;27.42;13.35;;;;;;;6.14;87.98;99291.78;1558799;92;21054;-78
2022/12/06 09:13:53;;;;;;;30.00;13.60;;;;;;;6.21;87.94;99295.22;1557522;90;21018;-78
2022/12/06 09:16:23;;;;;;;30.55;13.60;;;;;;;6.25;87.76;99291.76;1559008;92;21112;-77
2022/12/06 09:18:51;;;;;;;26.37;13.68;;;;;;;6.29;87.91;99279.27;1558331;90;21011;-78
2022/12/06 09:21:24;;;;;;;33.55;15.70;;;;;;;6.32;87.54;99280.95;1556582;92;21051;-78
2022/12/06 09:23:57;;;;;;;33.83;13.85;;;;;;;6.38;87.70;99274.47;1558650;92;21472;-77
2022/12/06 09:26:25;;;;;;;27.25;14.03;;;;;;;6.40;87.15;99276.61;1557564;90;21062;-78
2022/12/06 09:28:55;;;;;;;29.10;13.45;;;;;;;6.46;87.13;99280.89;1560823;90;21022;-77
2022/12/06 09:31:23;;;;;;;35.52;16.37;;;;;;;6.47;87.23;99273.14;1557741;92;21043;-77
2022/12/06 09:33:51;;;;;;;28.27;14.80;;;;;;;6.49;86.60;99270.11;1558887;92;21193;-76
2022/12/06 09:36:28;;;;;;;33.45;14.18;;;;;;;6.53;86.59;99270.52;1557513;91;21071;-78
2022/12/06 09:39:07;;;;;;;29.90;14.63;;;;;;;6.55;86.16;99258.45;1544455;92;21026;-77
2022/12/06 09:42:01;;;;;;;30.50;13.55;;;;;;;6.61;86.25;99260.59;1558187;90;21054;-78
2022/12/06 09:44:43;;;;;;;26.37;12.20;;;;;;;6.65;86.35;99245.05;1558004;90;21067;-77
2022/12/06 09:47:38;;;;;;;25.05;11.50;;;;;;;6.67;86.07;99241.16;1557791;90;22691;-78
2022/12/06 09:50:29;;;;;;;26.65;12.60;;;;;;;6.69;85.64;99230.39;1506791;94;21016;-78
2022/12/06 09:53:23;;;;;;;22.85;11.15;;;;;;;6.77;85.99;99237.64;1504087;95;21029;-77
2022/12/06 09:56:30;;;;;;;26.48;12.70;;;;;;;6.82;85.45;99231.98;1502692;95;21100;-80
2022/12/06 09:59:26;;;;;;;24.10;12.05;;;;;;;6.81;85.37;99226.41;1531162;93;21542;-77
2022/12/06 10:02:17;;;;;;;22.67;11.50;;;;;;;6.82;85.39;99215.19;1530159;93;21064;-77
2022/12/06 10:04:58;;;;;;;25.00;12.30;;;;;;;6.89;85.32;99207.82;1567476;91;21566;-77
2022/12/06 10:07:46;;;;;;;22.22;11.70;;;;;;;6.94;85.28;99203.89;1569782;91;21051;-78
2022/12/06 10:10:44;;;;;;;23.47;9.60;;;;;;;7.00;84.85;99197.81;1570660;91;21037;-77
2022/12/06 10:13:39;;;;;;;19.52;11.10;;;;;;;7.07;84.79;99201.63;1571757;90;21037;-77
2022/12/06 10:16:29;;;;;;;22.87;11.35;;;;;;;7.02;84.48;99194.78;1571963;90;21075;-77
2022/12/06 10:19:21;;;;;;;22.10;10.28;;;;;;;7.01;83.98;99192.64;1569941;90;21033;-77
2022/12/06 10:22:36;;;;;;;17.45;10.30;;;;;;;7.08;83.88;99181.80;1559010;91;21102;-77
2022/12/06 10:25:15;;;;;;;28.05;10.68;;;;;;;7.13;83.55;99180.89;1570676;90;21137;-78
2022/12/06 10:28:05;;;;;;;20.80;10.40;;;;;;;7.16;84.03;99160.19;1571551;90;21104;-77
2022/12/06 10:30:38;;;;;;;20.20;9.83;;;;;;;7.18;83.57;99157.56;1569607;91;21099;-78
2022/12/06 10:33:30;;;;;;;22.22;10.43;;;;;;;7.25;83.47;99154.50;1571277;90;21093;-78
2022/12/06 10:36:04;;;;;;;21.55;11.15;;;;;;;7.30;83.21;99163.92;1570087;91;21624;-78
2022/12/06 10:38:43;;;;;;;21.52;10.40;;;;;;;7.34;82.73;99155.26;1570918;90;21080;-78
2022/12/06 10:41:37;;;;;;;20.45;10.95;;;;;;;7.36;82.03;99150.92;1570334;91;21102;-78
2022/12/06 10:44:21;;;;;;;26.05;10.70;;;;;;;7.41;82.47;99140.95;1571044;90;21116;-78
2022/12/06 10:47:03;;;;;;;24.95;11.88;;;;;;;7.39;81.54;99138.83;1570320;91;21069;-77
2022/12/06 10:50:10;;;;;;;25.40;12.93;;;;;;;7.40;81.33;99131.47;1570281;91;21084;-78
2022/12/06 10:52:54;;;;;;;29.40;10.20;;;;;;;7.41;80.82;99124.14;1570376;91;21097;-78
2022/12/06 10:55:27;;;;;;;21.57;10.28;;;;;;;7.52;81.52;99114.50;1571434;91;21076;-78
2022/12/06 10:58:18;;;;;;;22.87;11.43;;;;;;;7.57;79.61;99108.84;1571762;91;21040;-78
2022/12/06 11:00:51;;;;;;;22.77;10.95;;;;;;;7.63;80.57;99102.30;1570978;91;21532;-78
2022/12/06 11:03:40;;;;;;;24.35;11.05;;;;;;;7.71;79.96;99097.02;1573991;88;20968;-77
2022/12/06 11:06:42;;;;;;;23.57;11.40;;;;;;;7.81;80.86;99103.78;1599507;89;21037;-78
2022/12/06 11:09:24;;;;;;;23.12;12.23;;;;;;;7.83;81.28;99089.09;1555458;90;21033;-78
2022/12/06 11:11:52;;;;;;;20.90;10.53;;;;;;;7.82;80.87;99097.75;1599523;90;21082;-79
2022/12/06 11:14:40;;;;;;;24.63;11.33;;;;;;;7.93;81.03;99102.76;1599554;90;21030;-76
2022/12/06 11:17:19;;;;;;;29.07;11.97;;;;;;;7.96;78.65;99100.14;1598167;90;21044;-76
2022/12/06 11:19:51;;;;;;;22.85;11.15;;;;;;;8.15;80.28;99094.23;1557808;91;21035;-75
2022/12/06 11:22:48;;;;;;;23.95;10.25;;;;;;;8.25;79.90;99088.47;1534162;92;21964;-76
2022/12/06 11:25:29;;;;;;;24.90;10.85;;;;;;;8.30;79.62;99090.56;1531284;93;21081;-76
2022/12/06 11:28:20;;;;;;;22.45;10.98;;;;;;;8.37;78.17;99088.27;1532747;92;21255;-76
2022/12/06 11:30:43;;;;;;;20.55;10.53;;;;;;;8.50;77.79;99096.30;1534386;92;21061;-76
2022/12/06 11:33:12;;;;;;;21.20;10.80;;;;;;;8.70;78.82;99092.52;1534496;92;21034;-76
2022/12/06 11:35:42;;;;;;;20.25;8.78;;;;;;;8.74;78.36;99095.02;1532071;92;21027;-78
2022/12/06 11:38:11;;;;;;;23.85;9.75;;;;;;;8.63;76.30;99098.67;1533842;93;21076;-77
2022/12/06 11:40:46;;;;;;;21.30;11.05;;;;;;;8.68;76.26;99092.98;1529600;93;21082;-76
2022/12/06 11:43:18;;;;;;;29.85;11.08;;;;;;;8.75;76.83;99084.20;1531044;92;21047;-77
2022/12/06 11:45:48;;;;;;;25.23;8.98;;;;;;;8.77;76.30;99078.55;1534006;92;21050;-76
2022/12/06 11:48:22;;;;;;;19.77;9.68;;;;;;;8.83;74.83;99068.06;1534437;92;21040;-76
2022/12/06 11:50:52;;;;;;;21.48;9.95;;;;;;;8.93;75.59;99070.92;1534626;92;21138;-77
2022/12/06 11:53:25;;;;;;;20.08;9.15;;;;;;;9.07;75.19;99068.07;1553161;90;21107;-76
2022/12/06 11:55:57;;;;;;;23.05;9.85;;;;;;;9.18;74.12;99067.84;1551936;90;21127;-76
2022/12/06 11:58:36;;;;;;;20.10;9.28;;;;;;;9.31;72.16;99066.72;1555941;90;21125;-76
2022/12/06 12:01:13;;;;;;;17.80;9.65;;;;;;;9.60;74.41;99060.51;1532322;92;21373;-78
2022/12/06 12:03:42;;;;;;;19.10;9.23;;;;;;;9.89;74.01;99059.88;1541719;90;21117;-76
2022/12/06 12:06:24;;;;;;;23.92;9.85;;;;;;;10.08;72.74;99057.68;1511992;93;21042;-76
2022/12/06 12:09:03;;;;;;;33.42;12.50;;;;;;;10.24;72.74;99051.67;1581872;90;21025;-76
2022/12/06 12:11:36;;;;;;;24.00;11.03;;;;;;;10.28;74.19;99058.05;1582159;90;21043;-76
2022/12/06 12:14:21;;;;;;;24.45;10.75;;;;;;;10.15;70.89;99051.01;1582757;91;21045;-76
2022/12/06 12:16:53;;;;;;;22.40;9.65;;;;;;;10.19;70.77;99047.89;1572193;91;21084;-76
2022/12/06 12:19:50;;;;;;;21.17;9.88;;;;;;;10.17;69.08;99043.19;1580639;91;21077;-77
2022/12/06 12:22:26;;;;;;;18.00;9.50;;;;;;;10.27;70.45;99039.92;1581119;90;21084;-76